createdAt,value
2017-10-26T00:00:51.448Z,61.80
2017-10-26T00:01:56.365Z,61.80
2017-10-26T00:03:01.100Z,61.80
2017-10-26T00:04:05.956Z,62.50
2017-10-26T00:05:10.681Z,61.80
2017-10-26T00:06:15.636Z,61.80
2017-10-26T00:07:20.439Z,61.80
2017-10-26T00:08:25.244Z,61.80
2017-10-26T00:09:30.082Z,61.80
2017-10-26T00:10:34.847Z,61.80
2017-10-26T00:11:39.854Z,61.80
2017-10-26T00:12:44.711Z,61.80
2017-10-26T00:13:49.912Z,61.80
2017-10-26T00:14:54.746Z,61.90
2017-10-26T00:15:59.644Z,61.90
2017-10-26T00:17:04.454Z,62.00
2017-10-26T00:18:09.126Z,61.80
2017-10-26T00:19:13.947Z,61.90
2017-10-26T00:20:18.663Z,62.00
2017-10-26T00:21:23.397Z,61.90
2017-10-26T00:22:28.481Z,61.90
2017-10-26T00:23:33.445Z,61.90
2017-10-26T00:24:38.089Z,61.90
2017-10-26T00:25:43.190Z,62.00
2017-10-26T00:26:48.004Z,61.90
2017-10-26T00:27:52.847Z,62.00
2017-10-26T00:28:57.698Z,62.00
2017-10-26T00:30:02.468Z,62.00
2017-10-26T00:31:07.212Z,62.10
2017-10-26T00:32:12.158Z,62.70
2017-10-26T00:33:16.997Z,62.10
2017-10-26T00:34:21.731Z,62.00
2017-10-26T00:35:26.655Z,62.10
2017-10-26T00:36:31.522Z,62.10
2017-10-26T00:37:36.205Z,62.10
2017-10-26T00:38:40.958Z,62.10
2017-10-26T00:39:45.849Z,62.10
2017-10-26T00:40:50.765Z,62.10
2017-10-26T00:41:55.509Z,62.10
2017-10-26T00:43:00.420Z,62.10
2017-10-26T00:44:05.241Z,62.10
2017-10-26T00:45:09.868Z,62.10
2017-10-26T00:46:14.572Z,62.10
2017-10-26T00:47:19.365Z,62.10
2017-10-26T00:48:24.290Z,62.20
2017-10-26T00:49:28.973Z,62.10
2017-10-26T00:50:34.485Z,62.20
2017-10-26T00:51:39.374Z,62.20
2017-10-26T00:52:44.192Z,62.20
2017-10-26T00:53:48.982Z,62.20
2017-10-26T00:54:53.878Z,62.20
2017-10-26T00:55:58.760Z,62.10
2017-10-26T00:57:03.575Z,62.10
2017-10-26T00:58:08.417Z,62.20
2017-10-26T00:59:13.039Z,62.20
2017-10-26T01:00:17.683Z,62.20
2017-10-26T01:01:22.482Z,62.20
2017-10-26T01:02:28.325Z,62.20
2017-10-26T01:03:33.167Z,62.20
2017-10-26T01:04:38.032Z,62.20
2017-10-26T01:05:43.087Z,62.30
2017-10-26T01:06:48.094Z,62.30
2017-10-26T01:07:53.035Z,62.20
2017-10-26T01:08:57.677Z,62.20
2017-10-26T01:10:02.660Z,62.20
2017-10-26T01:11:07.314Z,62.20
2017-10-26T01:12:12.314Z,62.20
2017-10-26T01:13:17.090Z,62.20
2017-10-26T01:14:21.826Z,62.20
2017-10-26T01:15:26.783Z,62.20
2017-10-26T01:16:31.732Z,62.30
2017-10-26T01:17:36.514Z,62.30
2017-10-26T01:18:41.567Z,62.30
2017-10-26T01:19:46.343Z,62.30
2017-10-26T01:20:51.245Z,62.30
2017-10-26T01:21:56.008Z,62.30
2017-10-26T01:23:00.699Z,62.30
2017-10-26T01:24:05.624Z,62.30
2017-10-26T01:25:10.735Z,62.30
2017-10-26T01:26:16.567Z,62.30
2017-10-26T01:27:21.509Z,62.30
2017-10-26T01:28:26.402Z,62.40
2017-10-26T01:29:31.794Z,62.30
2017-10-26T01:30:36.653Z,62.30
2017-10-26T01:31:41.349Z,62.30
2017-10-26T01:32:46.035Z,62.30
2017-10-26T01:33:51.077Z,62.30
2017-10-26T01:34:55.894Z,62.30
2017-10-26T01:36:00.753Z,62.30
2017-10-26T01:37:05.709Z,62.40
2017-10-26T01:38:10.735Z,62.30
2017-10-26T01:39:15.642Z,63.00
2017-10-26T01:40:20.633Z,62.40
2017-10-26T01:41:25.528Z,62.30
2017-10-26T01:42:30.321Z,62.40
2017-10-26T01:43:35.141Z,62.40
2017-10-26T01:44:39.987Z,62.40
2017-10-26T01:45:44.970Z,62.30
2017-10-26T01:46:50.649Z,62.30
2017-10-26T01:47:55.928Z,62.30
2017-10-26T01:49:00.892Z,62.30
2017-10-26T01:50:05.801Z,62.30
2017-10-26T01:51:10.535Z,62.40
2017-10-26T01:52:15.268Z,62.30
2017-10-26T01:53:20.534Z,62.40
2017-10-26T01:54:25.298Z,62.40
2017-10-26T01:55:30.096Z,62.30
2017-10-26T01:56:34.952Z,62.60
2017-10-26T01:57:39.787Z,62.50
2017-10-26T01:58:44.455Z,62.40
2017-10-26T01:59:49.745Z,62.40
2017-10-26T02:00:54.632Z,62.40
2017-10-26T02:01:59.533Z,62.40
2017-10-26T02:03:04.335Z,62.50
2017-10-26T02:04:21.106Z,62.50
2017-10-26T02:05:26.072Z,62.50
2017-10-26T02:06:30.686Z,62.50
2017-10-26T02:07:35.704Z,62.50
2017-10-26T02:08:40.535Z,62.50
2017-10-26T02:09:45.589Z,62.50
2017-10-26T02:10:50.526Z,62.50
2017-10-26T02:11:55.485Z,62.50
2017-10-26T02:13:01.232Z,62.50
2017-10-26T02:14:06.158Z,62.50
2017-10-26T02:15:11.104Z,62.50
2017-10-26T02:16:15.768Z,62.50
2017-10-26T02:17:20.587Z,62.50
2017-10-26T02:18:25.530Z,62.40
2017-10-26T02:19:30.286Z,62.50
2017-10-26T02:20:35.012Z,62.50
2017-10-26T02:21:40.387Z,62.50
2017-10-26T02:22:45.112Z,62.30
2017-10-26T02:23:49.969Z,62.40
2017-10-26T02:24:54.819Z,62.40
2017-10-26T02:25:59.532Z,62.30
2017-10-26T02:27:04.151Z,62.40
2017-10-26T02:28:09.014Z,62.40
2017-10-26T02:29:13.732Z,62.40
2017-10-26T02:30:18.406Z,62.30
2017-10-26T02:31:23.242Z,62.40
2017-10-26T02:32:28.180Z,62.40
2017-10-26T02:33:32.969Z,62.30
2017-10-26T02:34:37.698Z,62.40
2017-10-26T02:35:42.655Z,62.30
2017-10-26T02:36:47.668Z,62.30
2017-10-26T02:37:52.477Z,62.30
2017-10-26T02:38:57.386Z,62.40
2017-10-26T02:40:02.455Z,62.20
2017-10-26T02:41:07.133Z,62.20
2017-10-26T02:42:11.934Z,62.30
2017-10-26T02:43:16.577Z,62.30
2017-10-26T02:44:21.358Z,62.40
2017-10-26T02:45:26.305Z,62.30
2017-10-26T02:46:30.974Z,62.20
2017-10-26T02:47:36.046Z,62.20
2017-10-26T02:48:40.690Z,62.20
2017-10-26T02:49:45.450Z,62.30
2017-10-26T02:50:50.080Z,62.30
2017-10-26T02:51:54.862Z,62.20
2017-10-26T02:53:00.012Z,62.20
2017-10-26T02:54:04.689Z,62.30
2017-10-26T02:55:09.375Z,62.30
2017-10-26T02:56:14.080Z,62.20
2017-10-26T02:57:18.886Z,62.30
2017-10-26T02:58:23.644Z,62.20
2017-10-26T02:59:28.603Z,62.20
2017-10-26T03:00:33.487Z,62.10
2017-10-26T03:01:38.293Z,62.20
2017-10-26T03:02:42.896Z,62.10
2017-10-26T03:03:47.556Z,62.20
2017-10-26T03:04:52.451Z,62.20
2017-10-26T03:05:57.209Z,62.10
2017-10-26T03:07:01.829Z,62.10
2017-10-26T03:08:06.600Z,62.10
2017-10-26T03:09:11.494Z,62.20
2017-10-26T03:10:16.237Z,62.20
2017-10-26T03:11:21.164Z,62.20
2017-10-26T03:12:25.939Z,62.20
2017-10-26T03:13:30.769Z,62.10
2017-10-26T03:14:35.516Z,62.10
2017-10-26T03:15:40.282Z,62.10
2017-10-26T03:16:45.294Z,62.20
2017-10-26T03:17:49.932Z,62.80
2017-10-26T03:18:54.708Z,62.10
2017-10-26T03:19:59.416Z,62.20
2017-10-26T03:21:04.229Z,62.10
2017-10-26T03:22:09.136Z,62.10
2017-10-26T03:23:14.497Z,62.20
2017-10-26T03:24:20.657Z,62.20
2017-10-26T03:25:26.040Z,62.20
2017-10-26T03:26:31.408Z,62.10
2017-10-26T03:27:36.706Z,62.00
2017-10-26T03:28:42.667Z,62.10
2017-10-26T03:29:48.840Z,62.10
2017-10-26T03:30:54.013Z,62.00
2017-10-26T03:31:59.200Z,62.10
2017-10-26T03:33:04.581Z,62.10
2017-10-26T03:34:09.766Z,61.90
2017-10-26T03:35:14.887Z,62.00
2017-10-26T03:36:19.913Z,62.00
2017-10-26T03:37:24.954Z,61.90
2017-10-26T03:38:30.347Z,61.90
2017-10-26T03:39:35.585Z,61.90
2017-10-26T03:40:52.480Z,61.90
2017-10-26T03:41:57.517Z,61.90
2017-10-26T03:43:02.814Z,61.90
2017-10-26T03:44:07.918Z,61.90
2017-10-26T03:45:13.117Z,61.90
2017-10-26T03:46:18.244Z,61.90
2017-10-26T03:47:23.570Z,61.90
2017-10-26T03:48:28.816Z,61.80
2017-10-26T03:49:34.064Z,61.80
2017-10-26T03:50:39.234Z,62.50
2017-10-26T03:51:44.120Z,61.80
2017-10-26T03:52:49.269Z,61.80
2017-10-26T03:53:54.515Z,61.80
2017-10-26T03:55:00.767Z,61.90
2017-10-26T03:56:06.067Z,61.80
2017-10-26T03:57:11.622Z,61.80
2017-10-26T03:58:17.198Z,61.80
2017-10-26T03:59:23.588Z,61.80
2017-10-26T04:00:29.601Z,61.80
2017-10-26T04:01:35.041Z,61.80
2017-10-26T04:02:40.264Z,61.70
2017-10-26T04:03:45.567Z,61.70
2017-10-26T04:04:50.722Z,61.70
2017-10-26T04:05:55.738Z,61.70
2017-10-26T04:07:00.961Z,61.70
2017-10-26T04:08:06.003Z,61.80
2017-10-26T04:09:11.076Z,61.70
2017-10-26T04:10:16.032Z,61.70
2017-10-26T04:11:20.922Z,61.70
2017-10-26T04:12:26.202Z,61.70
2017-10-26T04:13:31.364Z,61.70
2017-10-26T04:14:36.707Z,61.70
2017-10-26T04:15:41.926Z,61.70
2017-10-26T04:16:47.242Z,61.70
2017-10-26T04:17:52.948Z,61.70
2017-10-26T04:18:59.113Z,61.70
2017-10-26T04:20:05.163Z,61.70
2017-10-26T04:21:10.996Z,61.80
2017-10-26T04:22:17.250Z,61.70
2017-10-26T04:23:27.410Z,61.60
2017-10-26T04:24:33.624Z,61.60
2017-10-26T04:25:41.847Z,61.50
2017-10-26T04:26:47.401Z,61.50
2017-10-26T04:27:52.609Z,61.50
2017-10-26T04:28:58.826Z,61.50
2017-10-26T04:30:05.763Z,61.50
2017-10-26T04:31:14.576Z,61.50
2017-10-26T04:32:20.871Z,61.50
2017-10-26T04:33:30.275Z,61.50
2017-10-26T04:34:39.857Z,61.50
2017-10-26T04:35:45.296Z,61.50
2017-10-26T04:36:50.418Z,61.40
2017-10-26T04:38:00.352Z,61.50
2017-10-26T04:39:06.222Z,61.40
2017-10-26T04:40:15.160Z,61.40
2017-10-26T04:41:22.070Z,61.40
2017-10-26T04:42:27.250Z,61.40
2017-10-26T04:43:32.509Z,61.40
2017-10-26T04:44:37.874Z,61.40
2017-10-26T04:45:43.707Z,61.40
2017-10-26T04:46:48.882Z,61.30
2017-10-26T04:47:53.953Z,61.30
2017-10-26T04:48:59.290Z,61.40
2017-10-26T04:50:04.504Z,61.40
2017-10-26T04:51:09.627Z,61.30
2017-10-26T04:52:14.719Z,61.30
2017-10-26T04:53:20.192Z,61.40
2017-10-26T04:54:25.487Z,61.30
2017-10-26T04:55:30.496Z,61.30
2017-10-26T04:56:35.767Z,61.30
2017-10-26T04:57:41.212Z,61.30
2017-10-26T04:58:46.595Z,61.40
2017-10-26T04:59:51.527Z,61.50
2017-10-26T05:00:56.729Z,61.60
2017-10-26T05:02:01.820Z,61.60
2017-10-26T05:03:06.795Z,61.60
2017-10-26T05:04:11.754Z,61.60
2017-10-26T05:05:16.640Z,61.80
2017-10-26T05:06:22.294Z,61.70
2017-10-26T05:07:27.224Z,61.70
2017-10-26T05:08:32.288Z,61.80
2017-10-26T05:09:37.234Z,61.80
2017-10-26T05:10:42.374Z,61.70
2017-10-26T05:11:47.107Z,61.70
2017-10-26T05:12:52.099Z,61.60
2017-10-26T05:13:57.024Z,61.60
2017-10-26T05:15:02.128Z,61.50
2017-10-26T05:16:07.258Z,61.50
2017-10-26T05:17:17.975Z,61.40
2017-10-26T05:18:57.731Z,61.40
2017-10-26T05:20:03.479Z,61.40
2017-10-26T05:21:08.722Z,61.40
2017-10-26T05:22:14.403Z,61.40
2017-10-26T05:23:19.599Z,61.30
2017-10-26T05:24:24.537Z,61.20
2017-10-26T05:25:29.802Z,61.20
2017-10-26T05:26:34.941Z,61.10
2017-10-26T05:27:39.959Z,61.10
2017-10-26T05:28:44.970Z,61.10
2017-10-26T05:29:50.120Z,61.20
2017-10-26T05:30:55.257Z,61.00
2017-10-26T05:32:00.175Z,61.00
2017-10-26T05:33:05.328Z,61.10
2017-10-26T05:34:10.706Z,61.30
2017-10-26T05:35:15.883Z,61.20
2017-10-26T05:36:21.100Z,61.30
2017-10-26T05:37:26.330Z,61.30
2017-10-26T05:38:36.548Z,61.30
2017-10-26T05:39:42.174Z,61.50
2017-10-26T05:40:47.843Z,61.40
2017-10-26T05:42:05.432Z,61.60
2017-10-26T05:43:10.884Z,61.60
2017-10-26T05:44:16.478Z,61.70
2017-10-26T05:45:22.001Z,61.90
2017-10-26T05:46:27.634Z,62.10
2017-10-26T05:47:32.984Z,62.30
2017-10-26T05:48:38.294Z,62.50
2017-10-26T05:49:43.699Z,62.50
2017-10-26T05:50:49.883Z,62.70
2017-10-26T05:51:55.053Z,62.70
2017-10-26T05:53:00.419Z,62.90
2017-10-26T05:54:05.470Z,63.10
2017-10-26T05:55:10.868Z,63.10
2017-10-26T05:56:20.397Z,63.10
2017-10-26T05:57:26.179Z,63.20
2017-10-26T05:58:31.375Z,63.40
2017-10-26T05:59:36.694Z,63.40
2017-10-26T06:00:41.950Z,63.50
2017-10-26T06:01:47.215Z,63.60
2017-10-26T06:02:52.224Z,63.60
2017-10-26T06:03:57.450Z,63.70
2017-10-26T06:05:02.988Z,63.80
2017-10-26T06:06:08.836Z,63.90
2017-10-26T06:07:14.327Z,64.10
2017-10-26T06:08:19.575Z,64.20
2017-10-26T06:09:24.599Z,64.20
2017-10-26T06:10:29.663Z,64.30
2017-10-26T06:11:34.740Z,64.30
2017-10-26T06:12:40.175Z,64.00
2017-10-26T06:13:45.458Z,63.70
2017-10-26T06:14:50.566Z,63.40
2017-10-26T06:15:55.896Z,63.30
2017-10-26T06:17:01.131Z,63.10
2017-10-26T06:18:06.722Z,63.00
2017-10-26T06:19:11.894Z,63.00
2017-10-26T06:20:16.879Z,63.00
2017-10-26T06:21:22.161Z,63.00
2017-10-26T06:22:28.797Z,63.00
2017-10-26T06:23:34.091Z,63.00
2017-10-26T06:24:39.580Z,63.30
2017-10-26T06:25:45.011Z,63.40
2017-10-26T06:26:50.526Z,63.50
2017-10-26T06:27:55.528Z,64.20
2017-10-26T06:29:00.800Z,63.60
2017-10-26T06:30:06.044Z,63.80
2017-10-26T06:31:11.494Z,63.90
2017-10-26T06:32:16.765Z,63.90
2017-10-26T06:33:22.365Z,64.30
2017-10-26T06:34:27.804Z,64.40
2017-10-26T06:35:33.304Z,64.90
2017-10-26T06:36:38.687Z,64.70
2017-10-26T06:37:44.038Z,64.60
2017-10-26T06:38:50.684Z,64.70
2017-10-26T06:39:58.422Z,64.80
2017-10-26T06:41:03.900Z,64.90
2017-10-26T06:42:09.238Z,64.90
2017-10-26T06:43:29.014Z,65.50
2017-10-26T06:44:34.438Z,65.50
2017-10-26T06:45:39.645Z,65.50
2017-10-26T06:46:45.132Z,65.50
2017-10-26T06:47:50.566Z,65.70
2017-10-26T06:48:56.098Z,65.90
2017-10-26T06:50:02.988Z,66.00
2017-10-26T06:51:08.606Z,66.20
2017-10-26T06:52:14.227Z,66.30
2017-10-26T06:53:20.001Z,66.20
2017-10-26T06:54:25.810Z,66.20
2017-10-26T06:55:31.283Z,66.40
2017-10-26T06:56:36.976Z,66.50
2017-10-26T06:57:42.710Z,66.60
2017-10-26T06:58:48.668Z,66.60
2017-10-26T06:59:54.526Z,67.30
2017-10-26T07:01:00.471Z,67.20
2017-10-26T07:02:06.099Z,67.30
2017-10-26T07:03:13.415Z,67.50
2017-10-26T07:04:20.665Z,67.70
2017-10-26T07:05:27.213Z,68.00
2017-10-26T07:06:33.059Z,68.10
2017-10-26T07:07:38.852Z,68.00
2017-10-26T07:08:44.514Z,68.50
2017-10-26T07:09:50.269Z,68.50
2017-10-26T07:10:56.436Z,68.50
2017-10-26T07:12:02.188Z,68.60
2017-10-26T07:13:07.951Z,69.80
2017-10-26T07:14:13.639Z,70.00
2017-10-26T07:15:19.205Z,69.70
2017-10-26T07:16:25.011Z,69.40
2017-10-26T07:17:30.727Z,69.20
2017-10-26T07:18:36.709Z,69.40
2017-10-26T07:19:43.739Z,70.00
2017-10-26T07:20:49.856Z,69.50
2017-10-26T07:21:55.696Z,69.50
2017-10-26T07:23:01.238Z,71.00
2017-10-26T07:24:08.104Z,71.20
2017-10-26T07:25:13.750Z,71.80
2017-10-26T07:26:19.184Z,70.80
2017-10-26T07:27:25.091Z,70.80
2017-10-26T07:28:30.973Z,71.00
2017-10-26T07:29:37.414Z,71.30
2017-10-26T07:30:44.090Z,71.40
2017-10-26T07:31:50.885Z,71.80
2017-10-26T07:32:58.015Z,72.00
2017-10-26T07:34:06.053Z,72.10
2017-10-26T07:35:13.288Z,72.30
2017-10-26T07:36:20.491Z,72.50
2017-10-26T07:37:27.326Z,73.20
2017-10-26T07:38:35.008Z,73.60
2017-10-26T07:39:41.108Z,74.40
2017-10-26T07:40:46.724Z,75.50
2017-10-26T07:41:52.637Z,75.60
2017-10-26T07:42:58.414Z,75.50
2017-10-26T07:44:05.095Z,75.30
2017-10-26T07:45:10.934Z,75.00
2017-10-26T07:46:16.517Z,75.00
2017-10-26T07:47:22.154Z,75.10
2017-10-26T07:48:27.831Z,75.30
2017-10-26T07:49:33.667Z,75.60
2017-10-26T07:50:39.131Z,75.70
2017-10-26T07:51:45.843Z,77.20
2017-10-26T07:52:52.401Z,77.80
2017-10-26T07:53:58.800Z,78.00
2017-10-26T07:55:05.446Z,77.80
2017-10-26T07:56:27.044Z,77.50
2017-10-26T07:57:33.625Z,77.20
2017-10-26T07:58:40.094Z,76.90
2017-10-26T07:59:47.745Z,76.90
2017-10-26T08:00:54.937Z,77.00
2017-10-26T08:02:01.628Z,77.40
2017-10-26T08:03:09.183Z,77.50
2017-10-26T08:04:16.092Z,78.00
2017-10-26T08:05:25.093Z,78.30
2017-10-26T08:06:36.889Z,78.80
2017-10-26T08:07:44.333Z,79.80
2017-10-26T08:08:51.725Z,80.40
2017-10-26T08:09:57.649Z,80.50
2017-10-26T08:11:03.641Z,80.30
2017-10-26T08:12:10.502Z,80.00
2017-10-26T08:13:17.423Z,80.00
2017-10-26T08:14:24.717Z,80.10
2017-10-26T08:15:31.508Z,80.20
2017-10-26T08:16:38.061Z,80.20
2017-10-26T08:17:45.554Z,80.30
2017-10-26T08:18:52.646Z,80.40
2017-10-26T08:20:00.072Z,80.60
2017-10-26T08:21:06.990Z,80.50
2017-10-26T08:22:14.367Z,80.30
2017-10-26T08:23:21.295Z,80.10
2017-10-26T08:24:28.198Z,79.90
2017-10-26T08:25:35.425Z,79.70
2017-10-26T08:26:42.634Z,79.50
2017-10-26T08:27:48.297Z,79.70
2017-10-26T08:28:54.944Z,80.50
2017-10-26T08:30:03.356Z,81.30
2017-10-26T08:31:11.953Z,82.00
2017-10-26T08:32:20.843Z,82.60
2017-10-26T08:33:27.950Z,83.30
2017-10-26T08:34:35.370Z,83.50
2017-10-26T08:35:42.039Z,83.30
2017-10-26T08:36:50.081Z,83.30
2017-10-26T08:37:55.714Z,83.10
2017-10-26T08:39:03.992Z,83.40
2017-10-26T08:40:11.065Z,83.80
2017-10-26T08:41:18.240Z,83.80
2017-10-26T08:42:26.340Z,83.40
2017-10-26T08:43:33.129Z,83.20
2017-10-26T08:44:38.932Z,83.50
2017-10-26T08:45:44.763Z,84.30
2017-10-26T08:46:50.534Z,84.10
2017-10-26T08:47:56.531Z,84.10
2017-10-26T08:49:02.123Z,84.00
2017-10-26T08:50:07.571Z,84.50
2017-10-26T08:51:12.984Z,84.60
2017-10-26T08:52:18.742Z,84.60
2017-10-26T08:53:24.561Z,84.40
2017-10-26T08:54:31.106Z,84.40
2017-10-26T08:55:37.953Z,84.90
2017-10-26T08:56:43.750Z,85.10
2017-10-26T08:57:49.526Z,85.90
2017-10-26T08:58:55.537Z,85.00
2017-10-26T09:00:01.773Z,85.00
2017-10-26T09:01:07.604Z,85.00
2017-10-26T09:02:13.133Z,84.80
2017-10-26T09:03:18.588Z,84.50
2017-10-26T09:04:24.430Z,84.40
2017-10-26T09:05:29.806Z,84.40
2017-10-26T09:06:35.277Z,84.30
2017-10-26T09:07:42.411Z,84.20
2017-10-26T09:08:51.402Z,84.10
2017-10-26T09:09:58.784Z,84.20
2017-10-26T09:11:06.642Z,84.00
2017-10-26T09:12:15.271Z,83.80
2017-10-26T09:13:36.883Z,83.80
2017-10-26T09:14:43.008Z,83.70
2017-10-26T09:15:48.687Z,83.50
2017-10-26T09:16:54.444Z,83.30
2017-10-26T09:18:00.866Z,83.30
2017-10-26T09:19:06.306Z,83.30
2017-10-26T09:20:22.435Z,83.20
2017-10-26T09:21:28.570Z,83.00
2017-10-26T09:22:35.479Z,82.90
2017-10-26T09:23:41.180Z,82.90
2017-10-26T09:24:46.475Z,82.80
2017-10-26T09:25:53.174Z,82.70
2017-10-26T09:26:58.690Z,82.50
2017-10-26T09:28:04.909Z,82.50
2017-10-26T09:29:10.317Z,82.40
2017-10-26T09:30:15.798Z,82.40
2017-10-26T09:31:22.169Z,82.40
2017-10-26T09:32:27.308Z,82.30
2017-10-26T09:33:34.085Z,82.20
2017-10-26T09:34:39.606Z,82.10
2017-10-26T09:35:46.269Z,82.00
2017-10-26T09:36:53.698Z,82.00
2017-10-26T09:37:59.053Z,81.80
2017-10-26T09:39:05.116Z,81.60
2017-10-26T09:40:10.387Z,81.50
2017-10-26T09:41:17.542Z,81.50
2017-10-26T09:42:23.709Z,81.40
2017-10-26T09:43:29.041Z,81.30
2017-10-26T09:44:34.811Z,81.10
2017-10-26T09:45:41.550Z,81.00
2017-10-26T09:46:59.504Z,80.80
2017-10-26T09:48:13.992Z,80.60
2017-10-26T09:49:20.382Z,80.50
2017-10-26T09:50:26.390Z,79.60
2017-10-26T09:51:31.513Z,78.90
2017-10-26T09:52:37.129Z,77.10
2017-10-26T09:53:42.638Z,76.00
2017-10-26T09:54:47.559Z,75.00
2017-10-26T09:55:53.376Z,74.70
2017-10-26T09:56:59.318Z,73.70
2017-10-26T09:58:04.943Z,74.00
2017-10-26T09:59:10.590Z,74.70
2017-10-26T10:00:16.201Z,72.40
2017-10-26T10:01:21.958Z,70.80
2017-10-26T10:02:27.624Z,71.80
2017-10-26T10:03:33.462Z,71.20
2017-10-26T10:04:39.038Z,71.00
2017-10-26T10:05:44.419Z,69.90
2017-10-26T10:06:49.632Z,70.10
2017-10-26T10:07:54.700Z,69.90
2017-10-26T10:09:00.254Z,69.70
2017-10-26T10:10:05.412Z,68.40
2017-10-26T10:11:10.892Z,68.40
2017-10-26T10:12:16.116Z,68.60
2017-10-26T10:13:21.458Z,68.30
2017-10-26T10:14:26.636Z,67.90
2017-10-26T10:15:32.089Z,68.00
2017-10-26T10:16:37.341Z,67.60
2017-10-26T10:17:42.644Z,68.60
2017-10-26T10:18:48.002Z,67.50
2017-10-26T10:19:54.033Z,67.40
2017-10-26T10:20:59.371Z,67.70
2017-10-26T10:22:04.394Z,67.60
2017-10-26T10:23:09.833Z,67.00
2017-10-26T10:24:15.136Z,67.20
2017-10-26T10:25:20.313Z,67.40
2017-10-26T10:26:25.817Z,67.20
2017-10-26T10:27:31.905Z,67.20
2017-10-26T10:28:37.360Z,67.30
2017-10-26T10:29:42.844Z,67.40
2017-10-26T10:30:48.336Z,67.50
2017-10-26T10:31:53.814Z,68.00
2017-10-26T10:32:59.390Z,67.80
2017-10-26T10:34:05.795Z,68.30
2017-10-26T10:35:11.313Z,68.40
2017-10-26T10:36:16.923Z,68.20
2017-10-26T10:37:22.439Z,67.30
2017-10-26T10:38:27.927Z,67.20
2017-10-26T10:39:33.300Z,67.10
2017-10-26T10:40:38.638Z,67.10
2017-10-26T10:41:44.218Z,66.80
2017-10-26T10:42:49.753Z,66.90
2017-10-26T10:43:55.088Z,66.70
2017-10-26T10:45:00.309Z,67.00
2017-10-26T10:46:05.637Z,66.70
2017-10-26T10:47:11.188Z,66.80
2017-10-26T10:48:16.423Z,67.00
2017-10-26T10:49:21.760Z,67.00
2017-10-26T10:50:27.593Z,66.90
2017-10-26T10:51:33.006Z,66.80
2017-10-26T10:52:38.359Z,66.70
2017-10-26T10:53:43.606Z,66.70
2017-10-26T10:54:49.325Z,66.70
2017-10-26T10:55:56.232Z,66.50
2017-10-26T10:57:03.607Z,66.60
2017-10-26T10:58:09.271Z,66.40
2017-10-26T10:59:18.987Z,66.50
2017-10-26T11:00:25.978Z,66.40
2017-10-26T11:01:31.597Z,66.30
2017-10-26T11:02:37.902Z,66.40
2017-10-26T11:03:43.504Z,66.30
2017-10-26T11:04:49.304Z,66.30
2017-10-26T11:05:54.857Z,66.30
2017-10-26T11:07:02.773Z,66.60
2017-10-26T11:08:11.484Z,66.50
2017-10-26T11:09:17.623Z,66.60
2017-10-26T11:10:23.353Z,66.50
2017-10-26T11:11:29.055Z,66.40
2017-10-26T11:12:34.700Z,66.20
2017-10-26T11:13:40.485Z,66.10
2017-10-26T11:14:46.240Z,66.00
2017-10-26T11:15:51.842Z,66.00
2017-10-26T11:16:57.449Z,65.90
2017-10-26T11:18:03.292Z,65.90
2017-10-26T11:19:09.038Z,66.10
2017-10-26T11:20:14.708Z,66.00
2017-10-26T11:21:19.950Z,66.20
2017-10-26T11:22:26.385Z,66.30
2017-10-26T11:23:32.109Z,66.10
2017-10-26T11:24:37.847Z,66.00
2017-10-26T11:25:44.964Z,65.80
2017-10-26T11:26:51.855Z,65.80
2017-10-26T11:27:58.024Z,65.70
2017-10-26T11:29:03.677Z,65.90
2017-10-26T11:30:09.254Z,65.70
2017-10-26T11:31:15.632Z,65.70
2017-10-26T11:32:22.334Z,65.70
2017-10-26T11:33:28.548Z,65.50
2017-10-26T11:34:35.476Z,65.60
2017-10-26T11:35:41.670Z,65.60
2017-10-26T11:36:49.010Z,65.60
2017-10-26T11:37:55.191Z,65.50
2017-10-26T11:39:00.485Z,65.40
2017-10-26T11:40:06.978Z,65.30
2017-10-26T11:41:12.304Z,65.30
2017-10-26T11:42:19.174Z,65.00
2017-10-26T11:43:27.009Z,65.00
2017-10-26T11:44:33.059Z,65.00
2017-10-26T11:45:39.378Z,65.00
2017-10-26T11:46:44.958Z,64.90
2017-10-26T11:47:51.030Z,65.00
2017-10-26T11:48:57.365Z,64.90
2017-10-26T11:50:03.646Z,64.80
2017-10-26T11:51:09.910Z,64.70
2017-10-26T11:52:16.669Z,64.50
2017-10-26T11:53:22.832Z,64.60
2017-10-26T11:54:28.692Z,64.60
2017-10-26T11:55:34.454Z,64.50
2017-10-26T11:56:41.056Z,64.50
2017-10-26T11:57:47.429Z,64.60
2017-10-26T11:58:54.204Z,64.60
2017-10-26T12:00:00.072Z,64.40
2017-10-26T12:01:05.793Z,64.30
2017-10-26T12:02:11.627Z,64.20
2017-10-26T12:03:18.447Z,64.50
2017-10-26T12:04:25.479Z,64.40
2017-10-26T12:05:31.594Z,64.50
2017-10-26T12:06:37.641Z,64.50
2017-10-26T12:07:44.204Z,64.10
2017-10-26T12:08:50.230Z,64.10
2017-10-26T12:09:56.099Z,64.30
2017-10-26T12:11:01.437Z,64.20
2017-10-26T12:12:07.948Z,64.10
2017-10-26T12:13:13.586Z,64.40
2017-10-26T12:14:18.601Z,64.00
2017-10-26T12:15:23.745Z,64.20
2017-10-26T12:16:29.340Z,64.20
2017-10-26T12:17:34.988Z,64.20
2017-10-26T12:18:41.058Z,64.10
2017-10-26T12:19:47.775Z,64.30
2017-10-26T12:20:54.153Z,64.10
2017-10-26T12:21:59.797Z,64.10
2017-10-26T12:23:06.238Z,64.10
2017-10-26T12:24:11.949Z,64.00
2017-10-26T12:25:19.311Z,64.20
2017-10-26T12:26:25.309Z,64.30
2017-10-26T12:27:31.103Z,64.20
2017-10-26T12:28:36.700Z,64.30
2017-10-26T12:29:41.979Z,64.30
2017-10-26T12:30:47.555Z,64.40
2017-10-26T12:31:52.753Z,64.20
2017-10-26T12:32:57.963Z,64.10
2017-10-26T12:34:03.920Z,64.00
2017-10-26T12:35:09.170Z,64.00
2017-10-26T12:36:14.568Z,63.90
2017-10-26T12:37:19.587Z,63.90
2017-10-26T12:38:25.127Z,63.60
2017-10-26T12:39:30.499Z,63.50
2017-10-26T12:40:36.249Z,63.50
2017-10-26T12:41:41.870Z,63.20
2017-10-26T12:42:47.788Z,63.00
2017-10-26T12:43:53.697Z,63.00
2017-10-26T12:44:59.280Z,63.00
2017-10-26T12:46:05.070Z,62.60
2017-10-26T12:47:10.591Z,62.50
2017-10-26T12:48:15.732Z,62.20
2017-10-26T12:49:21.127Z,62.20
2017-10-26T12:50:27.206Z,62.30
2017-10-26T12:51:32.682Z,62.40
2017-10-26T12:52:37.822Z,62.50
2017-10-26T12:53:42.949Z,62.30
2017-10-26T12:54:49.131Z,62.50
2017-10-26T12:55:54.847Z,62.50
2017-10-26T12:57:00.537Z,62.70
2017-10-26T12:58:06.486Z,62.60
2017-10-26T12:59:12.021Z,62.60
2017-10-26T13:00:17.332Z,62.60
2017-10-26T13:01:22.925Z,62.60
2017-10-26T13:02:28.486Z,62.60
2017-10-26T13:03:34.373Z,62.60
2017-10-26T13:04:39.853Z,62.80
2017-10-26T13:05:46.714Z,62.90
2017-10-26T13:06:52.287Z,62.80
2017-10-26T13:07:57.899Z,62.90
2017-10-26T13:09:04.069Z,63.00
2017-10-26T13:10:09.272Z,63.10
2017-10-26T13:11:14.752Z,64.40
2017-10-26T13:12:20.396Z,64.30
2017-10-26T13:13:25.298Z,64.70
2017-10-26T13:14:30.465Z,64.80
2017-10-26T13:15:35.638Z,65.00
2017-10-26T13:16:41.290Z,65.00
2017-10-26T13:17:47.363Z,65.00
2017-10-26T13:18:53.512Z,65.00
2017-10-26T13:19:59.846Z,65.00
2017-10-26T13:21:08.111Z,65.20
2017-10-26T13:22:13.580Z,65.40
2017-10-26T13:23:19.947Z,65.40
2017-10-26T13:24:26.019Z,65.40
2017-10-26T13:25:32.645Z,65.60
2017-10-26T13:26:38.708Z,65.90
2017-10-26T13:27:44.816Z,66.30
2017-10-26T13:28:51.520Z,66.40
2017-10-26T13:29:58.244Z,66.60
2017-10-26T13:31:04.277Z,66.90
2017-10-26T13:32:09.573Z,66.90
2017-10-26T13:33:14.891Z,66.80
2017-10-26T13:34:21.018Z,66.70
2017-10-26T13:35:27.212Z,66.60
2017-10-26T13:36:35.834Z,66.60
2017-10-26T13:37:42.346Z,66.60
2017-10-26T13:38:48.637Z,66.50
2017-10-26T13:39:55.097Z,66.40
2017-10-26T13:41:01.852Z,66.40
2017-10-26T13:42:08.191Z,66.40
2017-10-26T13:43:14.265Z,66.30
2017-10-26T13:44:19.599Z,66.30
2017-10-26T13:45:25.023Z,66.10
2017-10-26T13:46:30.032Z,66.00
2017-10-26T13:47:34.790Z,65.90
2017-10-26T13:48:39.978Z,65.70
2017-10-26T13:49:44.901Z,65.60
2017-10-26T13:50:49.694Z,65.50
2017-10-26T13:51:54.711Z,65.40
2017-10-26T13:52:59.722Z,65.40
2017-10-26T13:54:04.814Z,66.20
2017-10-26T13:55:09.880Z,65.60
2017-10-26T13:56:14.877Z,65.60
2017-10-26T13:57:19.694Z,65.60
2017-10-26T13:58:24.621Z,65.50
2017-10-26T13:59:29.560Z,65.50
2017-10-26T14:00:34.682Z,65.50
2017-10-26T14:01:39.769Z,65.50
2017-10-26T14:02:44.585Z,65.50
2017-10-26T14:03:49.597Z,65.60
2017-10-26T14:04:54.416Z,65.50
2017-10-26T14:05:59.466Z,65.50
2017-10-26T14:07:04.544Z,65.40
2017-10-26T14:08:09.467Z,65.20